createdAt,value
2022-11-10T00:01:27.311Z,101462.66
2022-11-10T00:03:53.641Z,101472.56
2022-11-10T00:06:19.974Z,101477.97
2022-11-10T00:08:46.414Z,101479.78
2022-11-10T00:11:14.165Z,101481.59
2022-11-10T00:13:40.461Z,101490.53
2022-11-10T00:16:06.935Z,101490.53
2022-11-10T00:18:33.230Z,101487.75
2022-11-10T00:21:02.305Z,101496.53
2022-11-10T00:23:28.582Z,101491.38
2022-11-10T00:25:55.125Z,101495.69
2022-11-10T00:28:22.761Z,101497.50
2022-11-10T00:30:49.046Z,101496.53
2022-11-10T00:33:15.339Z,101495.56
2022-11-10T00:35:41.609Z,101496.66
2022-11-10T00:38:07.905Z,101497.50
2022-11-10T00:40:34.182Z,101499.31
2022-11-10T00:43:00.454Z,101512.84
2022-11-10T00:45:28.090Z,101515.75
2022-11-10T00:47:54.366Z,101519.13
2022-11-10T00:50:20.700Z,101509.34
2022-11-10T00:52:47.011Z,101514.78
2022-11-10T00:55:13.323Z,101518.28
2022-11-10T00:57:39.608Z,101522.75
2022-11-10T01:00:06.547Z,101531.41
2022-11-10T01:02:34.195Z,101515.88
2022-11-10T01:05:00.537Z,101522.03
2022-11-10T01:07:26.841Z,101523.97
2022-11-10T01:09:53.129Z,101520.34
2022-11-10T01:12:19.415Z,101516.84
2022-11-10T01:14:47.057Z,101523.97
2022-11-10T01:17:13.315Z,101524.94
2022-11-10T01:19:41.409Z,101525.88
2022-11-10T01:22:07.719Z,101534.81
2022-11-10T01:24:34.017Z,101534.81
2022-11-10T01:27:00.296Z,101536.63
2022-11-10T01:29:26.604Z,101543.72
2022-11-10T01:31:52.880Z,101542.91
2022-11-10T01:34:19.168Z,101550.03
2022-11-10T01:36:46.780Z,101552.94
2022-11-10T01:39:13.070Z,101567.84
2022-11-10T01:41:39.356Z,101568.81
2022-11-10T01:44:13.009Z,101561.13
2022-11-10T01:46:39.470Z,101564.72
2022-11-10T01:49:06.120Z,101561.38
2022-11-10T01:51:34.170Z,101572.69
2022-11-10T01:54:05.307Z,101570.28
2022-11-10T01:56:33.714Z,101572.13
2022-11-10T01:59:03.280Z,101578.38
2022-11-10T02:01:30.163Z,101571.41
2022-11-10T02:03:58.815Z,101570.56
2022-11-10T02:06:26.629Z,101569.97
2022-11-10T02:08:53.912Z,101575.38
2022-11-10T02:11:22.468Z,101577.91
2022-11-10T02:13:49.023Z,101576.34
2022-11-10T02:16:15.438Z,101578.88
2022-11-10T02:18:41.819Z,101575.63
2022-11-10T02:21:09.484Z,101573.13
2022-11-10T02:23:49.214Z,101573.13
2022-11-10T02:26:17.637Z,101572.28
2022-11-10T02:28:43.944Z,101569.66
2022-11-10T02:31:10.261Z,101572.84
2022-11-10T02:33:36.779Z,101571.19
2022-11-10T02:36:03.434Z,101572.16
2022-11-10T02:38:31.067Z,101571.44
2022-11-10T02:40:57.370Z,101582.03
2022-11-10T02:43:24.108Z,101591.69
2022-11-10T02:45:50.625Z,101594.31
2022-11-10T02:48:16.927Z,101602.97
2022-11-10T02:50:43.692Z,101620.44
2022-11-10T02:53:10.009Z,101624.75
2022-11-10T02:55:37.613Z,101628.13
2022-11-10T02:58:03.908Z,101629.22
2022-11-10T03:00:30.312Z,101634.50
2022-11-10T03:02:56.951Z,101629.34
2022-11-10T03:05:23.290Z,101627.41
2022-11-10T03:07:52.138Z,101626.69
2022-11-10T03:10:18.495Z,101624.16
2022-11-10T03:12:46.134Z,101614.69
2022-11-10T03:15:12.396Z,101621.91
2022-11-10T03:17:38.825Z,101618.28
2022-11-10T03:20:05.379Z,101625.53
2022-11-10T03:22:31.658Z,101628.88
2022-11-10T03:24:57.945Z,101634.44
2022-11-10T03:27:24.250Z,101632.88
2022-11-10T03:29:51.872Z,101637.19
2022-11-10T03:32:18.135Z,101632.13
2022-11-10T03:34:44.411Z,101638.28
2022-11-10T03:37:10.691Z,101636.63
2022-11-10T03:39:36.971Z,101641.09
2022-11-10T03:42:03.289Z,101650.00
2022-11-10T03:44:29.567Z,101653.59
2022-11-10T03:46:57.189Z,101660.59
2022-11-10T03:49:23.537Z,101663.13
2022-11-10T03:51:49.852Z,101671.41
2022-11-10T03:54:16.131Z,101677.69
2022-11-10T03:56:42.409Z,101685.75
2022-11-10T03:59:08.687Z,101683.09
2022-11-10T04:01:35.087Z,101684.91
2022-11-10T04:04:02.821Z,101693.94
2022-11-10T04:06:29.133Z,101693.09
2022-11-10T04:08:55.421Z,101695.63
2022-11-10T04:11:21.842Z,101699.22
2022-11-10T04:13:48.119Z,101701.88
2022-11-10T04:16:14.423Z,101709.13
2022-11-10T04:18:40.687Z,101705.63
2022-11-10T04:21:08.304Z,101710.09
2022-11-10T04:23:34.595Z,101708.41
2022-11-10T04:26:01.877Z,101710.19
2022-11-10T04:28:28.185Z,101720.91
2022-11-10T04:30:54.455Z,101724.41
2022-11-10T04:33:20.969Z,101728.97
2022-11-10T04:35:47.482Z,101737.66
2022-11-10T04:38:15.116Z,101736.81
2022-11-10T04:40:41.409Z,101742.09
2022-11-10T04:43:07.723Z,101745.72
2022-11-10T04:45:34.370Z,101748.34
2022-11-10T04:48:00.656Z,101750.28
2022-11-10T04:50:26.987Z,101753.75
2022-11-10T04:52:53.267Z,101755.44
2022-11-10T04:55:20.891Z,101771.22
2022-11-10T04:57:47.197Z,101767.63
2022-11-10T05:00:14.047Z,101773.88
2022-11-10T05:02:40.302Z,101775.78
2022-11-10T05:05:06.876Z,101781.31
2022-11-10T05:07:33.176Z,101788.31
2022-11-10T05:09:59.475Z,101788.31
2022-11-10T05:12:27.105Z,101793.88
2022-11-10T05:14:53.420Z,101794.81
2022-11-10T05:17:19.699Z,101797.59
2022-11-10T05:19:45.972Z,101799.28
2022-11-10T05:22:12.253Z,101794.09
2022-11-10T05:24:38.539Z,101808.28
2022-11-10T05:27:05.220Z,101810.09
2022-11-10T05:29:32.846Z,101810.22
2022-11-10T05:31:59.134Z,101821.66
2022-11-10T05:34:25.430Z,101823.22
2022-11-10T05:36:51.704Z,101828.41
2022-11-10T05:39:17.980Z,101816.25
2022-11-10T05:41:44.259Z,101825.88
2022-11-10T05:44:10.588Z,101823.22
2022-11-10T05:46:38.206Z,101828.50
2022-11-10T05:49:04.577Z,101825.97
2022-11-10T05:51:30.884Z,101818.16
2022-11-10T05:53:57.167Z,101816.47
2022-11-10T05:56:23.425Z,101818.38
2022-11-10T05:58:49.739Z,101809.47
2022-11-10T06:01:16.011Z,101811.16
2022-11-10T06:03:43.648Z,101815.50
2022-11-10T06:06:09.968Z,101820.06
2022-11-10T06:08:36.272Z,101826.31
2022-11-10T06:11:02.547Z,101826.22
2022-11-10T06:13:28.824Z,101835.97
2022-11-10T06:15:55.129Z,101846.53
2022-11-10T06:18:21.433Z,101847.38
2022-11-10T06:20:49.108Z,101860.75
2022-11-10T06:23:15.664Z,101860.63
2022-11-10T06:25:42.300Z,101864.38
2022-11-10T06:28:08.936Z,101864.38
2022-11-10T06:30:36.188Z,101863.66
2022-11-10T06:33:02.642Z,101876.88
2022-11-10T06:35:29.392Z,101871.81
2022-11-10T06:38:01.364Z,101880.59
2022-11-10T06:40:28.104Z,101878.06
2022-11-10T06:42:54.431Z,101876.38
2022-11-10T06:45:20.883Z,101890.53
2022-11-10T06:47:47.155Z,101895.94
2022-11-10T06:50:13.699Z,101899.44
2022-11-10T06:52:39.981Z,101905.56
2022-11-10T06:55:08.277Z,101905.56
2022-11-10T06:57:37.322Z,101908.13
2022-11-10T07:00:04.058Z,101921.47
2022-11-10T07:02:30.356Z,101927.59
2022-11-10T07:04:56.623Z,101929.94
2022-11-10T07:07:22.913Z,101937.88
2022-11-10T07:09:49.216Z,101933.22
2022-11-10T07:12:16.847Z,101932.22
2022-11-10T07:14:43.128Z,101947.03
2022-11-10T07:17:09.408Z,101939.84
2022-11-10T07:19:35.675Z,101943.09
2022-11-10T07:22:02.677Z,101943.84
2022-11-10T07:24:31.786Z,101952.50
2022-11-10T07:26:58.149Z,101959.25
2022-11-10T07:29:25.817Z,101959.03
2022-11-10T07:31:52.308Z,101958.78
2022-11-10T07:34:18.652Z,101970.00
2022-11-10T07:36:44.966Z,101967.97
2022-11-10T07:39:11.263Z,101974.69
2022-11-10T07:41:37.560Z,101977.97
2022-11-10T07:44:03.997Z,101995.09
2022-11-10T07:46:31.639Z,101993.06
2022-11-10T07:48:57.972Z,101996.22
2022-11-10T07:51:24.303Z,102005.72
2022-11-10T07:53:50.590Z,101989.34
2022-11-10T07:56:16.859Z,102000.22
2022-11-10T07:58:43.146Z,101998.41
2022-11-10T08:01:09.809Z,101996.38
2022-11-10T08:03:37.481Z,102002.03
2022-11-10T08:06:03.910Z,102000.84
2022-11-10T08:08:30.416Z,102007.34
2022-11-10T08:10:57.622Z,102015.06
2022-11-10T08:13:24.147Z,102011.22
2022-11-10T08:15:50.796Z,102016.03
2022-11-10T08:18:18.589Z,102026.88
2022-11-10T08:20:46.261Z,102024.00
2022-11-10T08:23:12.691Z,102018.19
2022-11-10T08:25:39.315Z,102030.25
2022-11-10T08:28:06.858Z,102042.22
2022-11-10T08:30:34.702Z,102042.69
2022-11-10T08:33:01.840Z,102043.88
2022-11-10T08:35:29.065Z,102041.47
2022-11-10T08:37:56.711Z,102041.81
2022-11-10T08:40:24.696Z,102047.34
2022-11-10T08:42:57.746Z,102044.22
2022-11-10T08:45:24.062Z,102038.44
2022-11-10T08:47:56.104Z,102052.78
2022-11-10T08:50:22.380Z,102043.47
2022-11-10T08:52:48.697Z,102043.97
2022-11-10T08:55:16.428Z,102053.22
2022-11-10T08:57:42.715Z,102051.88
2022-11-10T09:00:09.792Z,102053.31
2022-11-10T09:02:36.074Z,102051.13
2022-11-10T09:05:02.441Z,102056.66
2022-11-10T09:07:28.759Z,102061.59
2022-11-10T09:10:06.685Z,102058.28
2022-11-10T09:12:36.126Z,102065.72
2022-11-10T09:15:02.438Z,102070.44
2022-11-10T09:17:28.716Z,102077.88
2022-11-10T09:19:55.072Z,102075.69
2022-11-10T09:22:21.434Z,102077.69
2022-11-10T09:24:47.738Z,102093.00
2022-11-10T09:27:14.048Z,102087.19
2022-11-10T09:29:41.704Z,102092.81
2022-11-10T09:32:07.994Z,102098.19
2022-11-10T09:34:34.297Z,102093.47
2022-11-10T09:37:00.572Z,102098.25
2022-11-10T09:39:26.868Z,102104.63
2022-11-10T09:41:53.228Z,102102.00
2022-11-10T09:44:22.975Z,102099.56
2022-11-10T09:46:53.382Z,102105.16
2022-11-10T09:49:25.412Z,102109.00
2022-11-10T09:51:53.206Z,102109.31
2022-11-10T09:54:27.495Z,102108.63
2022-11-10T09:56:53.813Z,102108.69
2022-11-10T09:59:25.183Z,102107.88
2022-11-10T10:01:58.424Z,102123.28
2022-11-10T10:04:51.518Z,102117.31
2022-11-10T10:07:22.675Z,102120.00
2022-11-10T10:09:52.900Z,102122.09
2022-11-10T10:12:24.958Z,102124.78
2022-11-10T10:15:02.900Z,102112.72
2022-11-10T10:17:38.362Z,102113.28
2022-11-10T10:20:11.603Z,102104.59
2022-11-10T10:22:45.906Z,102104.28
2022-11-10T10:25:14.287Z,102109.34
2022-11-10T10:27:40.808Z,102104.47
2022-11-10T10:30:11.849Z,102111.19
2022-11-10T10:32:39.904Z,102120.59
2022-11-10T10:35:06.643Z,102123.66
2022-11-10T10:37:39.121Z,102128.59
2022-11-10T10:40:06.127Z,102139.56
2022-11-10T10:42:33.815Z,102142.66
2022-11-10T10:45:17.102Z,102141.41
2022-11-10T10:47:45.185Z,102142.53
2022-11-10T10:50:22.389Z,102154.03
2022-11-10T10:53:05.156Z,102150.38
2022-11-10T10:55:31.455Z,102158.25
2022-11-10T10:57:58.386Z,102163.28
2022-11-10T11:00:24.825Z,102158.66
2022-11-10T11:03:04.602Z,102161.31
2022-11-10T11:05:31.257Z,102157.81
2022-11-10T11:07:58.446Z,102173.69
2022-11-10T11:10:26.162Z,102164.00
2022-11-10T11:12:52.501Z,102160.63
2022-11-10T11:15:20.965Z,102166.97
2022-11-10T11:17:54.192Z,102172.97
2022-11-10T11:20:25.394Z,102173.97
2022-11-10T11:22:56.567Z,102173.97
2022-11-10T11:25:27.038Z,102171.47
2022-11-10T11:27:57.386Z,102172.13
2022-11-10T11:30:24.268Z,102182.41
2022-11-10T11:32:57.235Z,102171.72
2022-11-10T11:35:29.154Z,102185.50
2022-11-10T11:38:01.971Z,102185.50
2022-11-10T11:40:32.067Z,102183.50
2022-11-10T11:43:05.164Z,102179.56
2022-11-10T11:45:36.678Z,102177.34
2022-11-10T11:48:14.937Z,102183.50
2022-11-10T11:50:48.619Z,102190.09
2022-11-10T11:53:23.192Z,102201.03
2022-11-10T11:56:02.728Z,102211.03
2022-11-10T11:58:35.332Z,102205.66
2022-11-10T12:01:07.527Z,102206.47
2022-11-10T12:03:42.861Z,102207.31
2022-11-10T12:06:21.644Z,102206.03
2022-11-10T12:08:51.867Z,102204.47
2022-11-10T12:11:21.080Z,102203.34
2022-11-10T12:13:53.790Z,102203.19
2022-11-10T12:16:21.857Z,102214.19
2022-11-10T12:18:53.493Z,102210.94
2022-11-10T12:21:25.221Z,102211.94
2022-11-10T12:24:00.144Z,102218.25
2022-11-10T12:26:32.884Z,102222.34
2022-11-10T12:29:02.942Z,102229.50
2022-11-10T12:31:32.382Z,102227.81
2022-11-10T12:34:01.765Z,102226.13
2022-11-10T12:36:31.168Z,102229.78
2022-11-10T12:39:01.079Z,102236.25
2022-11-10T12:41:29.961Z,102222.19
2022-11-10T12:44:02.397Z,102232.56
2022-11-10T12:46:28.757Z,102225.25
2022-11-10T12:48:59.988Z,102230.59
2022-11-10T12:51:30.892Z,102231.44
2022-11-10T12:53:58.659Z,102230.47
2022-11-10T12:56:28.415Z,102227.94
2022-11-10T12:59:09.580Z,102227.22
2022-11-10T13:01:42.038Z,102230.88
2022-11-10T13:04:08.403Z,102228.63
2022-11-10T13:06:34.860Z,102221.59
2022-11-10T13:09:02.695Z,102222.31
2022-11-10T13:11:30.587Z,102224.84
2022-11-10T13:13:59.746Z,102230.88
2022-11-10T13:16:45.142Z,102235.38
2022-11-10T13:19:31.441Z,102232.72
2022-11-10T13:22:08.891Z,102235.38
2022-11-10T13:24:36.040Z,102249.44
2022-11-10T13:27:02.614Z,102241.13
2022-11-10T13:29:52.558Z,102243.09
2022-11-10T13:32:23.742Z,102245.75
2022-11-10T13:34:51.951Z,102258.13
2022-11-10T13:37:36.267Z,102249.59
2022-11-10T13:40:26.544Z,102246.34
2022-11-10T13:43:07.732Z,102257.31
2022-11-10T13:45:34.884Z,102255.09
2022-11-10T13:48:04.538Z,102251.28
2022-11-10T13:50:35.428Z,102257.63
2022-11-10T13:53:11.521Z,102263.97
2022-11-10T13:55:46.549Z,102261.28
2022-11-10T13:58:18.291Z,102255.38
2022-11-10T14:00:49.076Z,102263.25
2022-11-10T14:03:30.392Z,102261.84
2022-11-10T14:06:08.051Z,102256.78
2022-11-10T14:08:55.458Z,102245.44
2022-11-10T14:11:26.742Z,102245.44
2022-11-10T14:13:56.271Z,102241.34
2022-11-10T14:16:23.908Z,102251.19
2022-11-10T14:18:56.741Z,102246.69
2022-11-10T14:21:27.114Z,102246.69
2022-11-10T14:23:56.132Z,102240.78
2022-11-10T14:26:25.543Z,102242.06
2022-11-10T14:28:51.814Z,102241.22
2022-11-10T14:31:19.728Z,102242.22
2022-11-10T14:33:52.690Z,102255.16
2022-11-10T14:36:18.971Z,102254.31
2022-11-10T14:38:45.372Z,102259.09
2022-11-10T14:41:14.978Z,102257.69
2022-11-10T14:43:42.606Z,102262.47
2022-11-10T14:46:13.656Z,102266.97
2022-11-10T14:48:39.937Z,102258.41
2022-11-10T14:51:08.934Z,102252.50
2022-11-10T14:53:36.127Z,102246.88
2022-11-10T14:56:04.269Z,102236.63
2022-11-10T14:58:32.637Z,102240.84
2022-11-10T15:01:00.493Z,102238.31
2022-11-10T15:03:30.690Z,102238.31
2022-11-10T15:05:57.161Z,102248.28
2022-11-10T15:08:23.885Z,102254.06
2022-11-10T15:10:51.295Z,102263.88
2022-11-10T15:13:33.280Z,102265.16
2022-11-10T15:16:14.457Z,102274.97
2022-11-10T15:18:42.137Z,102271.47
2022-11-10T15:21:10.425Z,102278.06
2022-11-10T15:23:37.958Z,102279.59
2022-11-10T15:26:05.312Z,102275.94
2022-11-10T15:28:32.489Z,102273.81
2022-11-10T15:30:59.802Z,102279.81
2022-11-10T15:33:26.956Z,102282.06
2022-11-10T15:35:55.390Z,102274.19
2022-11-10T15:38:26.878Z,102281.75
2022-11-10T15:41:03.749Z,102287.63
2022-11-10T15:43:30.025Z,102283.69
2022-11-10T15:45:58.454Z,102283.25
2022-11-10T15:48:25.127Z,102286.31
2022-11-10T15:50:52.834Z,102294.03
2022-11-10T15:53:24.748Z,102297.06
2022-11-10T15:55:51.145Z,102302.94
2022-11-10T15:58:18.682Z,102305.16
2022-11-10T16:00:45.198Z,102315.38
2022-11-10T16:03:11.944Z,102321.81
2022-11-10T16:05:38.361Z,102316.03
2022-11-10T16:08:05.588Z,102314.88
2022-11-10T16:10:33.246Z,102307.84
2022-11-10T16:12:59.565Z,102308.84
2022-11-10T16:15:25.878Z,102303.06
2022-11-10T16:17:52.185Z,102299.69
2022-11-10T16:20:18.484Z,102297.28
2022-11-10T16:22:44.764Z,102309.03
2022-11-10T16:25:20.499Z,102305.81
2022-11-10T16:27:50.406Z,102312.22
2022-11-10T16:30:16.810Z,102322.03
2022-11-10T16:32:43.102Z,102316.84
2022-11-10T16:35:11.960Z,102321.19
2022-11-10T16:37:39.811Z,102331.72
2022-11-10T16:40:12.228Z,102333.53
2022-11-10T16:42:38.531Z,102330.03
2022-11-10T16:45:12.871Z,102338.28
2022-11-10T16:47:39.247Z,102333.91
2022-11-10T16:50:06.367Z,102342.88
2022-11-10T16:52:32.657Z,102343.16
2022-11-10T16:54:58.928Z,102342.44
2022-11-10T16:57:25.233Z,102346.31
2022-11-10T16:59:51.528Z,102354.72
2022-11-10T17:02:26.209Z,102358.72
2022-11-10T17:04:52.572Z,102358.97
2022-11-10T17:07:20.546Z,102357.53
2022-11-10T17:09:46.849Z,102369.16
2022-11-10T17:12:13.660Z,102368.66
2022-11-10T17:14:39.952Z,102373.88
2022-11-10T17:17:08.555Z,102376.91
2022-11-10T17:19:36.207Z,102383.31
2022-11-10T17:22:02.498Z,102390.56
2022-11-10T17:24:28.814Z,102383.81
2022-11-10T17:26:55.140Z,102386.84
2022-11-10T17:29:21.521Z,102390.25
2022-11-10T17:31:48.093Z,102391.06
2022-11-10T17:34:14.361Z,102390.25
2022-11-10T17:36:42.017Z,102387.69
2022-11-10T17:39:10.184Z,102394.00
2022-11-10T17:41:36.709Z,102391.44
2022-11-10T17:44:03.138Z,102385.28
2022-11-10T17:46:29.411Z,102390.97
2022-11-10T17:49:01.634Z,102399.91
2022-11-10T17:51:31.889Z,102400.75
2022-11-10T17:54:00.354Z,102405.75
2022-11-10T17:56:26.648Z,102407.56
2022-11-10T17:58:52.947Z,102410.47
2022-11-10T18:01:19.589Z,102412.16
2022-11-10T18:03:45.969Z,102409.03
2022-11-10T18:06:13.075Z,102409.28
2022-11-10T18:08:39.392Z,102409.16
2022-11-10T18:11:08.576Z,102399.72
2022-11-10T18:13:35.335Z,102397.06
2022-11-10T18:16:01.594Z,102409.63
2022-11-10T18:18:27.910Z,102416.19
2022-11-10T18:20:54.187Z,102436.84
2022-11-10T18:23:20.881Z,102439.38
2022-11-10T18:25:47.486Z,102445.78
2022-11-10T18:28:15.408Z,102445.91
2022-11-10T18:30:42.185Z,102453.28
2022-11-10T18:33:09.455Z,102455.00
2022-11-10T18:35:36.743Z,102447.13
2022-11-10T18:38:03.118Z,102438.66
2022-11-10T18:40:29.418Z,102447.00
2022-11-10T18:42:55.800Z,102440.44
2022-11-10T18:45:23.728Z,102437.91
2022-11-10T18:47:50.149Z,102440.69
2022-11-10T18:50:17.039Z,102439.25
2022-11-10T18:52:43.362Z,102445.63
2022-11-10T18:55:10.040Z,102447.44
2022-11-10T18:57:36.351Z,102456.50
2022-11-10T19:00:03.061Z,102462.19
2022-11-10T19:02:30.722Z,102462.53
2022-11-10T19:04:57.013Z,102459.41
2022-11-10T19:07:23.323Z,102454.31
2022-11-10T19:09:49.621Z,102457.31
2022-11-10T19:12:15.990Z,102453.09
2022-11-10T19:14:42.333Z,102451.72
2022-11-10T19:17:08.651Z,102447.50
2022-11-10T19:19:36.306Z,102446.66
2022-11-10T19:22:02.714Z,102448.44
2022-11-10T19:24:30.335Z,102445.09
2022-11-10T19:27:01.148Z,102446.16
2022-11-10T19:29:27.453Z,102444.47
2022-11-10T19:31:53.806Z,102441.19
2022-11-10T19:34:20.110Z,102444.47
2022-11-10T19:36:47.788Z,102452.66
2022-11-10T19:39:14.231Z,102452.44
2022-11-10T19:41:40.511Z,102440.34
2022-11-10T19:44:06.851Z,102442.75
2022-11-10T19:46:33.154Z,102446.16
2022-11-10T19:48:59.586Z,102445.53
2022-11-10T19:51:25.874Z,102443.00
2022-11-10T19:53:57.244Z,102438.75
2022-11-10T19:56:27.603Z,102446.50
2022-11-10T19:58:57.207Z,102454.69
2022-11-10T20:01:23.858Z,102458.56
2022-11-10T20:03:50.189Z,102467.72
2022-11-10T20:06:17.502Z,102473.13
2022-11-10T20:08:43.992Z,102481.09
2022-11-10T20:11:12.844Z,102483.03
2022-11-10T20:13:39.221Z,102477.00
2022-11-10T20:16:06.282Z,102487.72
2022-11-10T20:18:32.861Z,102488.69
2022-11-10T20:21:01.628Z,102489.84
2022-11-10T20:23:27.922Z,102484.63
2022-11-10T20:26:00.936Z,102494.31
2022-11-10T20:28:28.568Z,102498.16
2022-11-10T20:30:55.510Z,102496.44
2022-11-10T20:33:22.128Z,102498.75
2022-11-10T20:35:48.583Z,102493.56
2022-11-10T20:38:14.889Z,102502.38
2022-11-10T20:40:45.182Z,102496.34
2022-11-10T20:43:11.713Z,102491.13
2022-11-10T20:45:39.419Z,102497.53
2022-11-10T20:48:05.720Z,102492.41
2022-11-10T20:50:31.998Z,102503.28
2022-11-10T20:52:58.317Z,102502.56
2022-11-10T20:55:44.055Z,102497.44
2022-11-10T20:58:10.863Z,102504.56
2022-11-10T21:00:37.169Z,102498.63
2022-11-10T21:03:04.813Z,102507.78
2022-11-10T21:05:31.104Z,102512.84
2022-11-10T21:07:57.382Z,102513.94
2022-11-10T21:10:23.679Z,102514.16
2022-11-10T21:12:49.957Z,102518.63
2022-11-10T21:15:16.396Z,102514.25
2022-11-10T21:17:44.190Z,102521.59
2022-11-10T21:20:12.351Z,102514.25
2022-11-10T21:22:38.650Z,102513.53
2022-11-10T21:25:05.426Z,102508.22
2022-11-10T21:27:31.715Z,102503.16
2022-11-10T21:29:58.263Z,102501.34
2022-11-10T21:32:24.641Z,102500.25
2022-11-10T21:34:50.913Z,102495.19
2022-11-10T21:37:18.528Z,102501.44
2022-11-10T21:39:44.829Z,102506.97
2022-11-10T21:42:11.105Z,102506.97
2022-11-10T21:44:37.432Z,102517.38
2022-11-10T21:47:04.319Z,102517.47
2022-11-10T21:49:30.610Z,102510.97
2022-11-10T21:51:56.913Z,102505.06
2022-11-10T21:54:24.542Z,102511.22
2022-11-10T21:56:50.825Z,102504.22
2022-11-10T21:59:17.114Z,102505.28
2022-11-10T22:01:43.719Z,102509.72
2022-11-10T22:04:10.065Z,102517.47
2022-11-10T22:06:36.390Z,102517.69
2022-11-10T22:09:02.706Z,102522.91
2022-11-10T22:11:30.323Z,102526.50
2022-11-10T22:13:56.610Z,102528.19
2022-11-10T22:16:25.555Z,102538.91
2022-11-10T22:18:51.964Z,102544.13
2022-11-10T22:21:18.276Z,102540.50
2022-11-10T22:23:44.578Z,102538.91
2022-11-10T22:26:11.123Z,102529.91
2022-11-10T22:28:39.001Z,102544.88
2022-11-10T22:31:06.203Z,102542.44
2022-11-10T22:33:32.580Z,102531.81
2022-11-10T22:35:58.858Z,102534.56
2022-11-10T22:38:25.175Z,102532.97
2022-11-10T22:40:51.445Z,102534.78
2022-11-10T22:43:17.744Z,102555.19
2022-11-10T22:45:45.665Z,102556.25
2022-11-10T22:48:11.930Z,102559.00
2022-11-10T22:50:38.216Z,102573.44
2022-11-10T22:53:04.523Z,102571.72
2022-11-10T22:55:30.800Z,102558.47
2022-11-10T22:57:57.099Z,102564.00
2022-11-10T23:00:23.389Z,102560.50
2022-11-10T23:02:52.759Z,102571.13
2022-11-10T23:05:19.030Z,102574.50
2022-11-10T23:07:45.322Z,102580.78
2022-11-10T23:10:11.619Z,102583.53
2022-11-10T23:12:37.933Z,102582.69
2022-11-10T23:15:04.349Z,102583.63
2022-11-10T23:17:30.663Z,102590.84
2022-11-10T23:19:58.282Z,102586.41
2022-11-10T23:22:24.560Z,102597.00
2022-11-10T23:24:56.811Z,102599.88
2022-11-10T23:27:23.733Z,102616.00
2022-11-10T23:29:50.046Z,102612.50
2022-11-10T23:32:16.332Z,102628.19
2022-11-10T23:34:42.589Z,102633.72
2022-11-10T23:37:10.285Z,102633.84
2022-11-10T23:39:36.575Z,102635.00
2022-11-10T23:42:02.934Z,102636.69
2022-11-10T23:44:29.230Z,102628.94
2022-11-10T23:46:55.516Z,102635.19
2022-11-10T23:49:21.796Z,102635.53
2022-11-10T23:51:48.099Z,102624.16
2022-11-10T23:54:15.734Z,102610.78
2022-11-10T23:56:42.007Z,102614.59
2022-11-10T23:59:08.291Z,102624.69
